sensor_id;sensor_type;location;lat;lon;timestamp;P1;durP1;ratioP1;P2;durP2;ratioP2
11984;SDS011;6052;53.246;10.368;2022-07-05T00:01:37;3.25;;;1.50;;
11984;SDS011;6052;53.246;10.368;2022-07-05T00:04:05;2.00;;;1.02;;
11984;SDS011;6052;53.246;10.368;2022-07-05T00:06:34;2.45;;;1.02;;
11984;SDS011;6052;53.246;10.368;2022-07-05T00:09:02;4.72;;;1.30;;
11984;SDS011;6052;53.246;10.368;2022-07-05T00:11:30;1.95;;;1.30;;
11984;SDS011;6052;53.246;10.368;2022-07-05T00:13:58;2.63;;;1.25;;
11984;SDS011;6052;53.246;10.368;2022-07-05T00:16:26;2.63;;;1.48;;
11984;SDS011;6052;53.246;10.368;2022-07-05T00:18:54;2.45;;;1.30;;
11984;SDS011;6052;53.246;10.368;2022-07-05T00:21:21;1.50;;;1.30;;
11984;SDS011;6052;53.246;10.368;2022-07-05T00:23:51;2.88;;;1.30;;
11984;SDS011;6052;53.246;10.368;2022-07-05T00:26:19;3.25;;;1.10;;
11984;SDS011;6052;53.246;10.368;2022-07-05T00:28:47;3.28;;;1.63;;
11984;SDS011;6052;53.246;10.368;2022-07-05T00:31:15;3.08;;;1.50;;
11984;SDS011;6052;53.246;10.368;2022-07-05T00:33:43;1.75;;;1.20;;
11984;SDS011;6052;53.246;10.368;2022-07-05T00:36:10;2.75;;;1.35;;
11984;SDS011;6052;53.246;10.368;2022-07-05T00:38:38;3.47;;;1.42;;
11984;SDS011;6052;53.246;10.368;2022-07-05T00:41:07;2.13;;;1.17;;
11984;SDS011;6052;53.246;10.368;2022-07-05T00:43:35;3.88;;;1.50;;
11984;SDS011;6052;53.246;10.368;2022-07-05T00:46:03;3.00;;;1.38;;
11984;SDS011;6052;53.246;10.368;2022-07-05T00:48:31;5.95;;;1.58;;
11984;SDS011;6052;53.246;10.368;2022-07-05T00:50:59;2.28;;;1.23;;
11984;SDS011;6052;53.246;10.368;2022-07-05T00:53:28;1.25;;;1.10;;
11984;SDS011;6052;53.246;10.368;2022-07-05T00:55:56;4.47;;;1.67;;
11984;SDS011;6052;53.246;10.368;2022-07-05T00:58:25;4.00;;;1.20;;
11984;SDS011;6052;53.246;10.368;2022-07-05T01:00:54;2.72;;;1.30;;
11984;SDS011;6052;53.246;10.368;2022-07-05T01:03:21;4.43;;;1.20;;
11984;SDS011;6052;53.246;10.368;2022-07-05T01:05:49;3.50;;;1.33;;
11984;SDS011;6052;53.246;10.368;2022-07-05T01:08:18;2.70;;;1.35;;
11984;SDS011;6052;53.246;10.368;2022-07-05T01:10:45;1.88;;;1.27;;
11984;SDS011;6052;53.246;10.368;2022-07-05T01:13:14;1.63;;;1.15;;
11984;SDS011;6052;53.246;10.368;2022-07-05T01:15:43;2.20;;;1.33;;
11984;SDS011;6052;53.246;10.368;2022-07-05T01:18:11;2.55;;;1.30;;
11984;SDS011;6052;53.246;10.368;2022-07-05T01:20:39;2.28;;;1.50;;
11984;SDS011;6052;53.246;10.368;2022-07-05T01:23:08;3.40;;;1.40;;
11984;SDS011;6052;53.246;10.368;2022-07-05T01:25:36;2.80;;;1.65;;
11984;SDS011;6052;53.246;10.368;2022-07-05T01:28:04;3.05;;;1.38;;
11984;SDS011;6052;53.246;10.368;2022-07-05T01:30:32;2.75;;;1.10;;
11984;SDS011;6052;53.246;10.368;2022-07-05T01:33:04;3.05;;;1.30;;
11984;SDS011;6052;53.246;10.368;2022-07-05T01:35:32;2.25;;;1.30;;
11984;SDS011;6052;53.246;10.368;2022-07-05T01:38:01;3.42;;;1.40;;
11984;SDS011;6052;53.246;10.368;2022-07-05T01:40:30;1.27;;;1.13;;
11984;SDS011;6052;53.246;10.368;2022-07-05T01:42:58;4.47;;;1.38;;
11984;SDS011;6052;53.246;10.368;2022-07-05T01:45:27;1.67;;;1.33;;
11984;SDS011;6052;53.246;10.368;2022-07-05T01:48:09;2.53;;;1.20;;
11984;SDS011;6052;53.246;10.368;2022-07-05T01:50:38;1.40;;;1.13;;
11984;SDS011;6052;53.246;10.368;2022-07-05T01:53:08;1.60;;;1.10;;
11984;SDS011;6052;53.246;10.368;2022-07-05T01:55:40;3.33;;;1.45;;
11984;SDS011;6052;53.246;10.368;2022-07-05T01:58:07;1.83;;;1.10;;
11984;SDS011;6052;53.246;10.368;2022-07-05T02:00:41;3.28;;;1.30;;
11984;SDS011;6052;53.246;10.368;2022-07-05T02:03:10;3.08;;;1.38;;
11984;SDS011;6052;53.246;10.368;2022-07-05T02:05:39;2.13;;;1.17;;
11984;SDS011;6052;53.246;10.368;2022-07-05T02:08:07;1.88;;;1.50;;
11984;SDS011;6052;53.246;10.368;2022-07-05T02:10:35;2.35;;;1.25;;
11984;SDS011;6052;53.246;10.368;2022-07-05T02:13:05;2.58;;;1.38;;
11984;SDS011;6052;53.246;10.368;2022-07-05T02:15:33;1.92;;;1.30;;
11984;SDS011;6052;53.246;10.368;2022-07-05T02:18:03;3.85;;;1.63;;
11984;SDS011;6052;53.246;10.368;2022-07-05T02:20:32;3.17;;;1.20;;
11984;SDS011;6052;53.246;10.368;2022-07-05T02:23:02;2.75;;;1.42;;
11984;SDS011;6052;53.246;10.368;2022-07-05T02:25:30;1.88;;;1.33;;
11984;SDS011;6052;53.246;10.368;2022-07-05T02:27:58;1.98;;;1.02;;
11984;SDS011;6052;53.246;10.368;2022-07-05T02:30:29;1.80;;;1.20;;
11984;SDS011;6052;53.246;10.368;2022-07-05T02:32:57;1.48;;;1.20;;
11984;SDS011;6052;53.246;10.368;2022-07-05T02:35:24;2.85;;;1.25;;
11984;SDS011;6052;53.246;10.368;2022-07-05T02:37:52;3.97;;;1.35;;
11984;SDS011;6052;53.246;10.368;2022-07-05T02:40:20;1.48;;;1.15;;
11984;SDS011;6052;53.246;10.368;2022-07-05T02:42:48;1.75;;;1.15;;
11984;SDS011;6052;53.246;10.368;2022-07-05T02:45:16;3.97;;;1.20;;
11984;SDS011;6052;53.246;10.368;2022-07-05T02:47:45;2.90;;;1.40;;
11984;SDS011;6052;53.246;10.368;2022-07-05T02:50:13;3.55;;;1.20;;
11984;SDS011;6052;53.246;10.368;2022-07-05T02:52:41;3.95;;;1.38;;
11984;SDS011;6052;53.246;10.368;2022-07-05T02:55:09;2.83;;;1.42;;
11984;SDS011;6052;53.246;10.368;2022-07-05T02:57:38;2.85;;;1.45;;
11984;SDS011;6052;53.246;10.368;2022-07-05T03:00:06;5.57;;;1.48;;
11984;SDS011;6052;53.246;10.368;2022-07-05T03:02:35;2.45;;;1.35;;
11984;SDS011;6052;53.246;10.368;2022-07-05T03:05:04;2.15;;;1.35;;
11984;SDS011;6052;53.246;10.368;2022-07-05T03:07:33;2.38;;;1.40;;
11984;SDS011;6052;53.246;10.368;2022-07-05T03:10:00;2.00;;;1.33;;
11984;SDS011;6052;53.246;10.368;2022-07-05T03:12:29;3.13;;;1.42;;
11984;SDS011;6052;53.246;10.368;2022-07-05T03:14:57;2.50;;;1.40;;
11984;SDS011;6052;53.246;10.368;2022-07-05T03:17:25;3.90;;;1.48;;
11984;SDS011;6052;53.246;10.368;2022-07-05T03:19:53;1.73;;;1.40;;
11984;SDS011;6052;53.246;10.368;2022-07-05T03:22:22;2.10;;;1.50;;
11984;SDS011;6052;53.246;10.368;2022-07-05T03:24:50;2.53;;;1.33;;
11984;SDS011;6052;53.246;10.368;2022-07-05T03:27:18;2.40;;;1.45;;
11984;SDS011;6052;53.246;10.368;2022-07-05T03:29:46;1.35;;;1.25;;
11984;SDS011;6052;53.246;10.368;2022-07-05T03:32:13;1.67;;;1.13;;
11984;SDS011;6052;53.246;10.368;2022-07-05T03:34:41;1.20;;;1.10;;
11984;SDS011;6052;53.246;10.368;2022-07-05T03:37:10;2.35;;;1.30;;
11984;SDS011;6052;53.246;10.368;2022-07-05T03:39:41;2.33;;;1.38;;
11984;SDS011;6052;53.246;10.368;2022-07-05T03:42:09;2.35;;;1.30;;
11984;SDS011;6052;53.246;10.368;2022-07-05T03:44:37;3.85;;;1.42;;
11984;SDS011;6052;53.246;10.368;2022-07-05T03:47:05;2.45;;;1.63;;
11984;SDS011;6052;53.246;10.368;2022-07-05T03:49:33;2.67;;;1.45;;
11984;SDS011;6052;53.246;10.368;2022-07-05T03:52:01;4.00;;;1.42;;
11984;SDS011;6052;53.246;10.368;2022-07-05T03:54:29;3.75;;;1.50;;
11984;SDS011;6052;53.246;10.368;2022-07-05T03:56:58;1.88;;;1.30;;
11984;SDS011;6052;53.246;10.368;2022-07-05T03:59:26;2.10;;;1.45;;
11984;SDS011;6052;53.246;10.368;2022-07-05T04:01:53;2.17;;;1.48;;
11984;SDS011;6052;53.246;10.368;2022-07-05T04:04:21;2.65;;;1.52;;
11984;SDS011;6052;53.246;10.368;2022-07-05T04:06:49;3.47;;;1.55;;
11984;SDS011;6052;53.246;10.368;2022-07-05T04:09:17;2.45;;;1.80;;
11984;SDS011;6052;53.246;10.368;2022-07-05T04:11:45;2.60;;;1.50;;
11984;SDS011;6052;53.246;10.368;2022-07-05T04:14:14;2.05;;;1.35;;
11984;SDS011;6052;53.246;10.368;2022-07-05T04:16:42;1.98;;;1.50;;
11984;SDS011;6052;53.246;10.368;2022-07-05T04:19:10;1.95;;;1.77;;
11984;SDS011;6052;53.246;10.368;2022-07-05T04:21:38;6.05;;;1.58;;
11984;SDS011;6052;53.246;10.368;2022-07-05T04:24:06;1.92;;;1.40;;
11984;SDS011;6052;53.246;10.368;2022-07-05T04:26:34;2.80;;;2.00;;
11984;SDS011;6052;53.246;10.368;2022-07-05T04:29:02;4.10;;;1.67;;
11984;SDS011;6052;53.246;10.368;2022-07-05T04:31:31;4.97;;;1.40;;
11984;SDS011;6052;53.246;10.368;2022-07-05T04:33:59;2.05;;;1.40;;
11984;SDS011;6052;53.246;10.368;2022-07-05T04:36:28;2.85;;;1.75;;
11984;SDS011;6052;53.246;10.368;2022-07-05T04:38:56;5.18;;;1.70;;
11984;SDS011;6052;53.246;10.368;2022-07-05T04:41:24;5.18;;;1.60;;
11984;SDS011;6052;53.246;10.368;2022-07-05T04:43:52;3.22;;;1.60;;
11984;SDS011;6052;53.246;10.368;2022-07-05T04:46:19;2.55;;;1.42;;
11984;SDS011;6052;53.246;10.368;2022-07-05T04:48:49;3.63;;;1.73;;
11984;SDS011;6052;53.246;10.368;2022-07-05T04:51:17;3.58;;;1.60;;
11984;SDS011;6052;53.246;10.368;2022-07-05T04:53:46;3.58;;;1.67;;
11984;SDS011;6052;53.246;10.368;2022-07-05T04:56:13;4.68;;;1.80;;
11984;SDS011;6052;53.246;10.368;2022-07-05T04:58:41;4.82;;;1.67;;
11984;SDS011;6052;53.246;10.368;2022-07-05T05:01:09;2.80;;;1.90;;
11984;SDS011;6052;53.246;10.368;2022-07-05T05:03:37;2.60;;;1.40;;
11984;SDS011;6052;53.246;10.368;2022-07-05T05:06:06;2.92;;;1.75;;
11984;SDS011;6052;53.246;10.368;2022-07-05T05:08:34;3.60;;;1.65;;
11984;SDS011;6052;53.246;10.368;2022-07-05T05:11:02;6.22;;;1.75;;
11984;SDS011;6052;53.246;10.368;2022-07-05T05:13:32;4.00;;;1.90;;
11984;SDS011;6052;53.246;10.368;2022-07-05T05:16:00;1.85;;;1.50;;
11984;SDS011;6052;53.246;10.368;2022-07-05T05:18:31;2.17;;;1.55;;
11984;SDS011;6052;53.246;10.368;2022-07-05T05:20:59;6.82;;;1.65;;
11984;SDS011;6052;53.246;10.368;2022-07-05T05:23:28;2.25;;;1.65;;
11984;SDS011;6052;53.246;10.368;2022-07-05T05:25:56;3.63;;;1.70;;
11984;SDS011;6052;53.246;10.368;2022-07-05T05:28:24;2.30;;;1.10;;
11984;SDS011;6052;53.246;10.368;2022-07-05T05:30:52;2.13;;;1.25;;
11984;SDS011;6052;53.246;10.368;2022-07-05T05:33:20;2.83;;;1.55;;
11984;SDS011;6052;53.246;10.368;2022-07-05T05:35:53;3.90;;;1.38;;
11984;SDS011;6052;53.246;10.368;2022-07-05T05:38:21;2.40;;;1.60;;
11984;SDS011;6052;53.246;10.368;2022-07-05T05:40:50;2.47;;;1.38;;
11984;SDS011;6052;53.246;10.368;2022-07-05T05:43:18;4.68;;;1.40;;
11984;SDS011;6052;53.246;10.368;2022-07-05T05:45:46;5.78;;;1.63;;
11984;SDS011;6052;53.246;10.368;2022-07-05T05:48:13;2.20;;;1.10;;
11984;SDS011;6052;53.246;10.368;2022-07-05T05:50:41;2.47;;;1.38;;
11984;SDS011;6052;53.246;10.368;2022-07-05T05:53:09;3.38;;;1.23;;
11984;SDS011;6052;53.246;10.368;2022-07-05T05:55:37;2.20;;;1.30;;
11984;SDS011;6052;53.246;10.368;2022-07-05T05:58:13;3.35;;;1.50;;
11984;SDS011;6052;53.246;10.368;2022-07-05T06:00:42;3.53;;;1.40;;
11984;SDS011;6052;53.246;10.368;2022-07-05T06:03:10;3.60;;;1.42;;
11984;SDS011;6052;53.246;10.368;2022-07-05T06:05:38;2.40;;;1.45;;
11984;SDS011;6052;53.246;10.368;2022-07-05T06:08:06;3.97;;;1.10;;
11984;SDS011;6052;53.246;10.368;2022-07-05T06:10:34;2.75;;;0.90;;
11984;SDS011;6052;53.246;10.368;2022-07-05T06:13:03;5.20;;;1.30;;
11984;SDS011;6052;53.246;10.368;2022-07-05T06:15:33;1.63;;;1.20;;
11984;SDS011;6052;53.246;10.368;2022-07-05T06:18:01;1.73;;;1.25;;
11984;SDS011;6052;53.246;10.368;2022-07-05T06:20:31;3.08;;;1.50;;
11984;SDS011;6052;53.246;10.368;2022-07-05T06:23:00;2.67;;;1.10;;
11984;SDS011;6052;53.246;10.368;2022-07-05T06:25:30;1.98;;;1.30;;
11984;SDS011;6052;53.246;10.368;2022-07-05T06:27:58;4.25;;;1.40;;
11984;SDS011;6052;53.246;10.368;2022-07-05T06:30:29;4.68;;;1.15;;
11984;SDS011;6052;53.246;10.368;2022-07-05T06:33:00;1.30;;;0.93;;
11984;SDS011;6052;53.246;10.368;2022-07-05T06:35:30;3.08;;;1.08;;
11984;SDS011;6052;53.246;10.368;2022-07-05T06:37:59;2.65;;;1.05;;
11984;SDS011;6052;53.246;10.368;2022-07-05T06:40:30;3.75;;;1.10;;
11984;SDS011;6052;53.246;10.368;2022-07-05T06:42:59;1.30;;;0.90;;
11984;SDS011;6052;53.246;10.368;2022-07-05T06:45:29;3.35;;;0.93;;
11984;SDS011;6052;53.246;10.368;2022-07-05T06:47:58;1.35;;;0.90;;
11984;SDS011;6052;53.246;10.368;2022-07-05T06:50:30;2.47;;;1.13;;
11984;SDS011;6052;53.246;10.368;2022-07-05T06:52:59;4.40;;;1.20;;
11984;SDS011;6052;53.246;10.368;2022-07-05T06:55:28;2.00;;;1.02;;
11984;SDS011;6052;53.246;10.368;2022-07-05T06:57:56;5.13;;;1.13;;
11984;SDS011;6052;53.246;10.368;2022-07-05T07:00:41;3.00;;;1.85;;
11984;SDS011;6052;53.246;10.368;2022-07-05T07:03:31;1.40;;;0.88;;
11984;SDS011;6052;53.246;10.368;2022-07-05T07:06:19;3.22;;;1.00;;
11984;SDS011;6052;53.246;10.368;2022-07-05T07:08:47;2.35;;;1.00;;
11984;SDS011;6052;53.246;10.368;2022-07-05T07:11:32;2.90;;;1.05;;
11984;SDS011;6052;53.246;10.368;2022-07-05T07:14:00;1.02;;;0.93;;
11984;SDS011;6052;53.246;10.368;2022-07-05T07:16:31;3.10;;;0.98;;
11984;SDS011;6052;53.246;10.368;2022-07-05T07:19:00;2.35;;;1.02;;
11984;SDS011;6052;53.246;10.368;2022-07-05T07:21:40;3.40;;;1.00;;
11984;SDS011;6052;53.246;10.368;2022-07-05T07:24:09;1.15;;;1.00;;
11984;SDS011;6052;53.246;10.368;2022-07-05T07:26:37;2.10;;;0.80;;
11984;SDS011;6052;53.246;10.368;2022-07-05T07:29:22;2.75;;;1.08;;
11984;SDS011;6052;53.246;10.368;2022-07-05T07:31:50;2.42;;;0.85;;
11984;SDS011;6052;53.246;10.368;2022-07-05T07:34:19;1.15;;;1.02;;
11984;SDS011;6052;53.246;10.368;2022-07-05T07:36:48;2.70;;;1.00;;
11984;SDS011;6052;53.246;10.368;2022-07-05T07:39:22;2.35;;;1.00;;
11984;SDS011;6052;53.246;10.368;2022-07-05T07:41:50;3.17;;;0.75;;
11984;SDS011;6052;53.246;10.368;2022-07-05T07:44:18;1.48;;;0.90;;
11984;SDS011;6052;53.246;10.368;2022-07-05T07:46:54;2.28;;;0.93;;
11984;SDS011;6052;53.246;10.368;2022-07-05T07:49:23;0.82;;;0.63;;
11984;SDS011;6052;53.246;10.368;2022-07-05T07:51:51;1.00;;;0.80;;
11984;SDS011;6052;53.246;10.368;2022-07-05T07:54:43;0.80;;;0.70;;
11984;SDS011;6052;53.246;10.368;2022-07-05T07:57:11;2.92;;;0.90;;
11984;SDS011;6052;53.246;10.368;2022-07-05T07:59:39;3.67;;;0.73;;
11984;SDS011;6052;53.246;10.368;2022-07-05T08:02:07;1.02;;;0.63;;
11984;SDS011;6052;53.246;10.368;2022-07-05T08:04:36;2.10;;;1.08;;
11984;SDS011;6052;53.246;10.368;2022-07-05T08:07:04;1.63;;;0.95;;
11984;SDS011;6052;53.246;10.368;2022-07-05T08:09:32;0.70;;;0.65;;
11984;SDS011;6052;53.246;10.368;2022-07-05T08:12:00;1.27;;;0.80;;
11984;SDS011;6052;53.246;10.368;2022-07-05T08:14:28;3.78;;;0.65;;
11984;SDS011;6052;53.246;10.368;2022-07-05T08:16:56;0.80;;;0.77;;
11984;SDS011;6052;53.246;10.368;2022-07-05T08:19:24;1.60;;;0.70;;
11984;SDS011;6052;53.246;10.368;2022-07-05T08:22:16;1.33;;;0.60;;
11984;SDS011;6052;53.246;10.368;2022-07-05T08:24:45;1.63;;;0.75;;
11984;SDS011;6052;53.246;10.368;2022-07-05T08:27:14;1.20;;;0.60;;
11984;SDS011;6052;53.246;10.368;2022-07-05T08:29:42;1.70;;;0.50;;
11984;SDS011;6052;53.246;10.368;2022-07-05T08:32:10;2.38;;;0.90;;
11984;SDS011;6052;53.246;10.368;2022-07-05T08:34:38;1.20;;;0.70;;
11984;SDS011;6052;53.246;10.368;2022-07-05T08:37:06;0.57;;;0.47;;
11984;SDS011;6052;53.246;10.368;2022-07-05T08:39:42;1.15;;;0.52;;
11984;SDS011;6052;53.246;10.368;2022-07-05T08:42:10;0.88;;;0.70;;
11984;SDS011;6052;53.246;10.368;2022-07-05T08:44:38;1.02;;;0.50;;
11984;SDS011;6052;53.246;10.368;2022-07-05T08:47:08;3.25;;;0.73;;
11984;SDS011;6052;53.246;10.368;2022-07-05T08:49:38;0.70;;;0.70;;
11984;SDS011;6052;53.246;10.368;2022-07-05T08:52:07;1.23;;;0.60;;
11984;SDS011;6052;53.246;10.368;2022-07-05T08:54:38;0.40;;;0.40;;
11984;SDS011;6052;53.246;10.368;2022-07-05T08:57:08;1.85;;;0.65;;
11984;SDS011;6052;53.246;10.368;2022-07-05T08:59:40;1.17;;;0.60;;
11984;SDS011;6052;53.246;10.368;2022-07-05T09:02:10;0.98;;;0.60;;
11984;SDS011;6052;53.246;10.368;2022-07-05T09:04:42;1.52;;;0.70;;
11984;SDS011;6052;53.246;10.368;2022-07-05T09:07:14;0.52;;;0.40;;
11984;SDS011;6052;53.246;10.368;2022-07-05T09:09:44;1.17;;;0.73;;
11984;SDS011;6052;53.246;10.368;2022-07-05T09:12:16;0.68;;;0.60;;
11984;SDS011;6052;53.246;10.368;2022-07-05T09:14:51;0.57;;;0.50;;
11984;SDS011;6052;53.246;10.368;2022-07-05T09:17:19;0.80;;;0.43;;
11984;SDS011;6052;53.246;10.368;2022-07-05T09:19:51;0.82;;;0.57;;
11984;SDS011;6052;53.246;10.368;2022-07-05T09:22:43;0.80;;;0.52;;
11984;SDS011;6052;53.246;10.368;2022-07-05T09:25:12;0.50;;;0.50;;
11984;SDS011;6052;53.246;10.368;2022-07-05T09:27:48;0.85;;;0.57;;
11984;SDS011;6052;53.246;10.368;2022-07-05T09:30:23;1.42;;;0.50;;
11984;SDS011;6052;53.246;10.368;2022-07-05T09:33:02;0.95;;;0.60;;
11984;SDS011;6052;53.246;10.368;2022-07-05T09:35:31;3.97;;;0.82;;
11984;SDS011;6052;53.246;10.368;2022-07-05T09:37:59;1.98;;;0.88;;
11984;SDS011;6052;53.246;10.368;2022-07-05T09:40:29;0.50;;;0.50;;
11984;SDS011;6052;53.246;10.368;2022-07-05T09:43:12;0.85;;;0.52;;
11984;SDS011;6052;53.246;10.368;2022-07-05T09:45:49;0.85;;;0.65;;
11984;SDS011;6052;53.246;10.368;2022-07-05T09:48:17;1.60;;;0.60;;
11984;SDS011;6052;53.246;10.368;2022-07-05T09:51:05;1.30;;;0.52;;
11984;SDS011;6052;53.246;10.368;2022-07-05T09:53:54;0.73;;;0.55;;
11984;SDS011;6052;53.246;10.368;2022-07-05T09:56:27;0.60;;;0.60;;
11984;SDS011;6052;53.246;10.368;2022-07-05T09:59:06;1.33;;;0.60;;
11984;SDS011;6052;53.246;10.368;2022-07-05T10:01:39;2.10;;;0.73;;
11984;SDS011;6052;53.246;10.368;2022-07-05T10:04:07;1.73;;;0.52;;
11984;SDS011;6052;53.246;10.368;2022-07-05T10:06:35;1.33;;;0.70;;
11984;SDS011;6052;53.246;10.368;2022-07-05T10:09:03;0.95;;;0.70;;
11984;SDS011;6052;53.246;10.368;2022-07-05T10:11:32;0.52;;;0.47;;
11984;SDS011;6052;53.246;10.368;2022-07-05T10:14:00;2.65;;;0.60;;
11984;SDS011;6052;53.246;10.368;2022-07-05T10:16:31;1.25;;;0.50;;
11984;SDS011;6052;53.246;10.368;2022-07-05T10:18:59;0.60;;;0.55;;
11984;SDS011;6052;53.246;10.368;2022-07-05T10:21:27;0.63;;;0.52;;
11984;SDS011;6052;53.246;10.368;2022-07-05T10:23:55;2.80;;;0.50;;
11984;SDS011;6052;53.246;10.368;2022-07-05T10:26:23;0.40;;;0.40;;
11984;SDS011;6052;53.246;10.368;2022-07-05T10:28:52;3.08;;;0.70;;
11984;SDS011;6052;53.246;10.368;2022-07-05T10:31:28;1.98;;;0.55;;
11984;SDS011;6052;53.246;10.368;2022-07-05T10:33:57;1.17;;;0.70;;
11984;SDS011;6052;53.246;10.368;2022-07-05T10:36:53;0.55;;;0.50;;
11984;SDS011;6052;53.246;10.368;2022-07-05T10:39:21;1.05;;;0.60;;
11984;SDS011;6052;53.246;10.368;2022-07-05T10:41:52;1.30;;;0.70;;
11984;SDS011;6052;53.246;10.368;2022-07-05T10:44:26;1.23;;;0.63;;
11984;SDS011;6052;53.246;10.368;2022-07-05T10:47:06;0.73;;;0.60;;
11984;SDS011;6052;53.246;10.368;2022-07-05T10:49:37;0.77;;;0.40;;
11984;SDS011;6052;53.246;10.368;2022-07-05T10:52:20;1.23;;;0.50;;
11984;SDS011;6052;53.246;10.368;2022-07-05T10:57:56;1.08;;;0.70;;
11984;SDS011;6052;53.246;10.368;2022-07-05T11:00:45;0.35;;;0.35;;
11984;SDS011;6052;53.246;10.368;2022-07-05T11:06:01;1.33;;;0.40;;
11984;SDS011;6052;53.246;10.368;2022-07-05T11:08:29;3.80;;;0.75;;
11984;SDS011;6052;53.246;10.368;2022-07-05T11:11:08;5.82;;;0.93;;
11984;SDS011;6052;53.246;10.368;2022-07-05T11:13:39;0.80;;;0.45;;
11984;SDS011;6052;53.246;10.368;2022-07-05T11:16:22;0.70;;;0.45;;
11984;SDS011;6052;53.246;10.368;2022-07-05T11:18:51;1.70;;;0.47;;
11984;SDS011;6052;53.246;10.368;2022-07-05T11:21:21;1.88;;;0.50;;
11984;SDS011;6052;53.246;10.368;2022-07-05T11:23:50;5.07;;;0.88;;
11984;SDS011;6052;53.246;10.368;2022-07-05T11:26:44;1.95;;;0.80;;
11984;SDS011;6052;53.246;10.368;2022-07-05T11:32:08;2.17;;;0.45;;
11984;SDS011;6052;53.246;10.368;2022-07-05T11:34:37;1.70;;;0.60;;
11984;SDS011;6052;53.246;10.368;2022-07-05T11:37:18;0.93;;;0.40;;
11984;SDS011;6052;53.246;10.368;2022-07-05T11:42:55;1.35;;;0.70;;
11984;SDS011;6052;53.246;10.368;2022-07-05T11:45:23;1.05;;;0.60;;
11984;SDS011;6052;53.246;10.368;2022-07-05T11:47:52;0.77;;;0.60;;
11984;SDS011;6052;53.246;10.368;2022-07-05T11:50:25;0.77;;;0.57;;
11984;SDS011;6052;53.246;10.368;2022-07-05T11:52:55;2.10;;;0.60;;
11984;SDS011;6052;53.246;10.368;2022-07-05T11:55:30;1.85;;;0.63;;
11984;SDS011;6052;53.246;10.368;2022-07-05T11:57:58;1.52;;;0.50;;
11984;SDS011;6052;53.246;10.368;2022-07-05T12:00:28;0.80;;;0.50;;
11984;SDS011;6052;53.246;10.368;2022-07-05T12:02:57;0.68;;;0.50;;
11984;SDS011;6052;53.246;10.368;2022-07-05T12:05:30;1.05;;;0.63;;
11984;SDS011;6052;53.246;10.368;2022-07-05T12:08:07;1.25;;;0.50;;
11984;SDS011;6052;53.246;10.368;2022-07-05T12:10:36;1.20;;;0.30;;
11984;SDS011;6052;53.246;10.368;2022-07-05T12:13:42;0.57;;;0.52;;
11984;SDS011;6052;53.246;10.368;2022-07-05T12:16:11;1.45;;;0.40;;
11984;SDS011;6052;53.246;10.368;2022-07-05T12:18:46;0.85;;;0.70;;
11984;SDS011;6052;53.246;10.368;2022-07-05T12:21:14;0.95;;;0.55;;
11984;SDS011;6052;53.246;10.368;2022-07-05T12:23:44;0.65;;;0.60;;
11984;SDS011;6052;53.246;10.368;2022-07-05T12:26:12;2.17;;;0.68;;
11984;SDS011;6052;53.246;10.368;2022-07-05T12:28:40;0.60;;;0.57;;
11984;SDS011;6052;53.246;10.368;2022-07-05T12:31:18;0.43;;;0.43;;
11984;SDS011;6052;53.246;10.368;2022-07-05T12:33:46;2.63;;;0.63;;
11984;SDS011;6052;53.246;10.368;2022-07-05T12:36:15;0.63;;;0.45;;
11984;SDS011;6052;53.246;10.368;2022-07-05T12:38:45;0.82;;;0.70;;
11984;SDS011;6052;53.246;10.368;2022-07-05T12:41:20;1.08;;;0.60;;
11984;SDS011;6052;53.246;10.368;2022-07-05T12:43:52;1.67;;;0.50;;
11984;SDS011;6052;53.246;10.368;2022-07-05T12:46:33;2.03;;;0.70;;
11984;SDS011;6052;53.246;10.368;2022-07-05T12:49:09;0.68;;;0.55;;
11984;SDS011;6052;53.246;10.368;2022-07-05T12:51:38;1.27;;;0.70;;
11984;SDS011;6052;53.246;10.368;2022-07-05T12:54:18;0.60;;;0.60;;
11984;SDS011;6052;53.246;10.368;2022-07-05T12:57:04;1.00;;;0.75;;
11984;SDS011;6052;53.246;10.368;2022-07-05T12:59:56;1.63;;;0.70;;
11984;SDS011;6052;53.246;10.368;2022-07-05T13:02:33;0.60;;;0.50;;
11984;SDS011;6052;53.246;10.368;2022-07-05T13:05:05;0.50;;;0.50;;
11984;SDS011;6052;53.246;10.368;2022-07-05T13:07:40;1.13;;;0.70;;
11984;SDS011;6052;53.246;10.368;2022-07-05T13:10:17;1.00;;;0.65;;
11984;SDS011;6052;53.246;10.368;2022-07-05T13:12:46;2.45;;;0.90;;
11984;SDS011;6052;53.246;10.368;2022-07-05T13:15:14;5.82;;;0.75;;
11984;SDS011;6052;53.246;10.368;2022-07-05T13:17:43;1.05;;;0.95;;
11984;SDS011;6052;53.246;10.368;2022-07-05T13:20:12;1.25;;;0.55;;
11984;SDS011;6052;53.246;10.368;2022-07-05T13:22:41;0.77;;;0.50;;
11984;SDS011;6052;53.246;10.368;2022-07-05T13:25:09;1.50;;;0.70;;
11984;SDS011;6052;53.246;10.368;2022-07-05T13:27:39;1.30;;;0.68;;
11984;SDS011;6052;53.246;10.368;2022-07-05T13:30:08;1.95;;;0.70;;
11984;SDS011;6052;53.246;10.368;2022-07-05T13:32:37;2.33;;;0.57;;
11984;SDS011;6052;53.246;10.368;2022-07-05T13:35:05;0.82;;;0.40;;
11984;SDS011;6052;53.246;10.368;2022-07-05T13:37:33;0.80;;;0.55;;
11984;SDS011;6052;53.246;10.368;2022-07-05T13:40:01;2.92;;;0.73;;
11984;SDS011;6052;53.246;10.368;2022-07-05T13:42:28;1.55;;;0.65;;
11984;SDS011;6052;53.246;10.368;2022-07-05T13:44:58;1.88;;;0.80;;
11984;SDS011;6052;53.246;10.368;2022-07-05T13:47:27;1.35;;;0.75;;
11984;SDS011;6052;53.246;10.368;2022-07-05T13:49:55;1.10;;;0.65;;
11984;SDS011;6052;53.246;10.368;2022-07-05T13:52:36;0.88;;;0.70;;
11984;SDS011;6052;53.246;10.368;2022-07-05T13:55:04;0.50;;;0.43;;
11984;SDS011;6052;53.246;10.368;2022-07-05T13:57:33;0.63;;;0.47;;
11984;SDS011;6052;53.246;10.368;2022-07-05T14:00:03;2.35;;;0.60;;
11984;SDS011;6052;53.246;10.368;2022-07-05T14:02:31;0.68;;;0.60;;
11984;SDS011;6052;53.246;10.368;2022-07-05T14:04:59;1.05;;;0.70;;
11984;SDS011;6052;53.246;10.368;2022-07-05T14:07:28;2.17;;;0.80;;
11984;SDS011;6052;53.246;10.368;2022-07-05T14:09:56;2.72;;;0.60;;
11984;SDS011;6052;53.246;10.368;2022-07-05T14:12:24;0.52;;;0.45;;
11984;SDS011;6052;53.246;10.368;2022-07-05T14:14:52;0.77;;;0.65;;
11984;SDS011;6052;53.246;10.368;2022-07-05T14:17:21;1.40;;;0.50;;
11984;SDS011;6052;53.246;10.368;2022-07-05T14:19:49;2.00;;;0.70;;
11984;SDS011;6052;53.246;10.368;2022-07-05T14:22:17;0.85;;;0.68;;
11984;SDS011;6052;53.246;10.368;2022-07-05T14:24:44;2.92;;;0.50;;
11984;SDS011;6052;53.246;10.368;2022-07-05T14:27:12;2.72;;;0.80;;
11984;SDS011;6052;53.246;10.368;2022-07-05T14:29:40;0.50;;;0.43;;
11984;SDS011;6052;53.246;10.368;2022-07-05T14:32:08;1.88;;;0.73;;
11984;SDS011;6052;53.246;10.368;2022-07-05T14:34:37;2.25;;;0.80;;
11984;SDS011;6052;53.246;10.368;2022-07-05T14:37:05;0.60;;;0.60;;
11984;SDS011;6052;53.246;10.368;2022-07-05T14:39:34;0.93;;;0.70;;
11984;SDS011;6052;53.246;10.368;2022-07-05T14:42:02;1.02;;;0.93;;
11984;SDS011;6052;53.246;10.368;2022-07-05T14:44:30;0.70;;;0.70;;
11984;SDS011;6052;53.246;10.368;2022-07-05T14:46:58;0.60;;;0.55;;
11984;SDS011;6052;53.246;10.368;2022-07-05T14:49:26;1.92;;;0.98;;
11984;SDS011;6052;53.246;10.368;2022-07-05T14:51:55;1.30;;;0.75;;
11984;SDS011;6052;53.246;10.368;2022-07-05T14:54:23;1.13;;;0.68;;
11984;SDS011;6052;53.246;10.368;2022-07-05T14:56:51;0.70;;;0.60;;
11984;SDS011;6052;53.246;10.368;2022-07-05T14:59:25;1.38;;;0.85;;
11984;SDS011;6052;53.246;10.368;2022-07-05T15:01:53;2.60;;;0.77;;
11984;SDS011;6052;53.246;10.368;2022-07-05T15:04:21;3.15;;;0.80;;
11984;SDS011;6052;53.246;10.368;2022-07-05T15:06:48;1.15;;;0.70;;
11984;SDS011;6052;53.246;10.368;2022-07-05T15:09:18;1.13;;;0.80;;
11984;SDS011;6052;53.246;10.368;2022-07-05T15:11:47;0.98;;;0.65;;
11984;SDS011;6052;53.246;10.368;2022-07-05T15:14:15;1.73;;;0.70;;
11984;SDS011;6052;53.246;10.368;2022-07-05T15:16:43;2.08;;;0.70;;
11984;SDS011;6052;53.246;10.368;2022-07-05T15:19:11;1.00;;;0.63;;